Nantucket, MA (02554)

8:45 PM EST on March 06, 2015 (GMT -0500)
Hummock Pond | Change Station
CLOSE
Current Station
Personal Weather Station
Location: Nantucket, MA
Elevation: 36 ft
Nearby Weather Stations

Elev 36 ft 41.27 °N, 70.12 °W | Updated 33 seconds ago

Clear
Clear
12.9 °F
Feels Like 13 °F
N
1.1
Wind Variable Wind from SW

Today
High -- | Low -- °F
--% Chance of Precip.
Yesterday
High -- | Low -- °F
Precip. -- in
6:07 AM 5:36 PM
Full, 98% visible
Pressure 30.40 in
Visibility 10.0 miles
Clouds Clear
Windchill 13 °F
Dew Point 8 °F
Humidity 81%
Rainfall in
Snow Depth Not available.
UV 0 out of 12
Pollen .50 out of 12
Air Quality Not available.
Flu Activity Not available.
METAR KACK 070053Z 28003KT 10SM CLR M09/M12 A3040 RMK AO2 SLP294 T10891122

More Conditions Fewer Conditions

Pressure 30.40 in
Visibility 10.0 miles
Clouds Clear
Windchill 13 °F
Dew Point 8 °F
Humidity 81%
Rainfall in
Snow Depth Not available.
UV 0 out of 12
Pollen .50 out of 12
Air Quality Not available.
Flu Activity Not available.
METAR KACK 070053Z 28003KT 10SM CLR M09/M12 A3040 RMK AO2 SLP294 T10891122

More Conditions Fewer Conditions

10-Day Weather Forecast

Almanac

Astronomy

Mar. 06, 2015 Rise Set
Actual Time
Civil Twilight
Nautical Twilight
Astronomical Twilight
Moon
Length of Visible Light
Length of Day
Tomorrow will be .
, % of the Moon is Illuminated

Today's Extremes

State Highs State Lows

Community

WunderPhotos

Upload Photos

1,803,494 photos uploaded!

WunderBlogs® & News

Nearby

Air Quality

  Air Quality AQ Index Pollutant
Not available.

Snow Depth

Station Depth Elevation

Earthquake Activity

City Distance Mag. Time & Date
Minimum magnitude displayed is 2.5.

Coastal Water Temperatures

Place Temperature

Nearby Weather Stations